Terminal Aerodrome Forecast
Issued by NWS

Home | Current Version | Previous Version | Text Only | Print | Product List | Glossary Off
Versions: 1 2 3 4 5 6 7 8 9 10 11 12 13 14

856
FTUS42 KMHX 171731
TAFOAJ
TAF
KOAJ 171731Z 1718/1818 26011G19KT P6SM SKC
     FM172300 22005KT P6SM FEW050
     FM181500 22008G18KT P6SM FEW050
      AMD LTD TO CLD VIS AND WIND=

USA.gov is the U.S. government's official web portal to all federal, state and local government web resources and services.